sensor_id;sensor_type;location;lat;lon;timestamp;P1;durP1;ratioP1;P2;durP2;ratioP2
47335;SDS011;33068;51.990;5.926;2024-03-08T00:00:58;50.92;;;24.65;;
47335;SDS011;33068;51.990;5.926;2024-03-08T00:03:27;50.10;;;26.08;;
47335;SDS011;33068;51.990;5.926;2024-03-08T00:05:55;46.15;;;25.70;;
47335;SDS011;33068;51.990;5.926;2024-03-08T00:08:23;53.50;;;25.83;;
47335;SDS011;33068;51.990;5.926;2024-03-08T00:10:50;48.58;;;25.10;;
47335;SDS011;33068;51.990;5.926;2024-03-08T00:13:18;49.88;;;23.38;;
47335;SDS011;33068;51.990;5.926;2024-03-08T00:15:45;55.33;;;26.65;;
47335;SDS011;33068;51.990;5.926;2024-03-08T00:18:13;57.05;;;26.33;;
47335;SDS011;33068;51.990;5.926;2024-03-08T00:20:42;51.80;;;25.65;;
47335;SDS011;33068;51.990;5.926;2024-03-08T00:23:09;49.88;;;24.02;;
47335;SDS011;33068;51.990;5.926;2024-03-08T00:25:37;47.95;;;24.70;;
47335;SDS011;33068;51.990;5.926;2024-03-08T00:28:04;44.75;;;24.52;;
47335;SDS011;33068;51.990;5.926;2024-03-08T00:30:32;53.38;;;25.20;;
47335;SDS011;33068;51.990;5.926;2024-03-08T00:32:59;57.28;;;26.63;;
47335;SDS011;33068;51.990;5.926;2024-03-08T00:35:27;45.45;;;23.90;;
47335;SDS011;33068;51.990;5.926;2024-03-08T00:37:55;53.85;;;26.63;;
47335;SDS011;33068;51.990;5.926;2024-03-08T00:40:22;51.80;;;25.10;;
47335;SDS011;33068;51.990;5.926;2024-03-08T00:42:50;48.97;;;25.02;;
47335;SDS011;33068;51.990;5.926;2024-03-08T00:45:18;50.38;;;25.35;;
47335;SDS011;33068;51.990;5.926;2024-03-08T00:47:45;53.58;;;26.92;;
47335;SDS011;33068;51.990;5.926;2024-03-08T00:50:13;46.67;;;24.98;;
47335;SDS011;33068;51.990;5.926;2024-03-08T00:52:43;46.28;;;24.30;;
47335;SDS011;33068;51.990;5.926;2024-03-08T00:55:12;44.67;;;25.08;;
47335;SDS011;33068;51.990;5.926;2024-03-08T00:57:39;46.42;;;24.70;;
47335;SDS011;33068;51.990;5.926;2024-03-08T01:00:07;46.72;;;25.92;;
47335;SDS011;33068;51.990;5.926;2024-03-08T01:02:37;47.85;;;25.25;;
47335;SDS011;33068;51.990;5.926;2024-03-08T01:05:05;44.20;;;24.90;;
47335;SDS011;33068;51.990;5.926;2024-03-08T01:07:33;47.83;;;22.92;;
47335;SDS011;33068;51.990;5.926;2024-03-08T01:10:00;38.28;;;21.98;;
47335;SDS011;33068;51.990;5.926;2024-03-08T01:12:29;45.30;;;24.83;;
47335;SDS011;33068;51.990;5.926;2024-03-08T01:14:56;45.25;;;24.52;;
47335;SDS011;33068;51.990;5.926;2024-03-08T01:17:24;46.20;;;24.80;;
47335;SDS011;33068;51.990;5.926;2024-03-08T01:19:52;44.70;;;25.05;;
47335;SDS011;33068;51.990;5.926;2024-03-08T01:22:19;42.60;;;23.20;;
47335;SDS011;33068;51.990;5.926;2024-03-08T01:24:47;42.30;;;23.33;;
47335;SDS011;33068;51.990;5.926;2024-03-08T01:27:15;41.97;;;23.90;;
47335;SDS011;33068;51.990;5.926;2024-03-08T01:29:43;44.47;;;24.27;;
47335;SDS011;33068;51.990;5.926;2024-03-08T01:32:11;48.13;;;24.85;;
47335;SDS011;33068;51.990;5.926;2024-03-08T01:34:38;40.70;;;24.23;;
47335;SDS011;33068;51.990;5.926;2024-03-08T01:37:05;41.03;;;24.65;;
47335;SDS011;33068;51.990;5.926;2024-03-08T01:39:35;39.72;;;23.75;;
47335;SDS011;33068;51.990;5.926;2024-03-08T01:42:02;42.08;;;22.42;;
47335;SDS011;33068;51.990;5.926;2024-03-08T01:44:29;42.45;;;23.27;;
47335;SDS011;33068;51.990;5.926;2024-03-08T01:46:58;41.83;;;24.25;;
47335;SDS011;33068;51.990;5.926;2024-03-08T01:49:26;48.95;;;26.52;;
47335;SDS011;33068;51.990;5.926;2024-03-08T01:51:54;41.83;;;23.50;;
47335;SDS011;33068;51.990;5.926;2024-03-08T01:54:26;45.92;;;25.67;;
47335;SDS011;33068;51.990;5.926;2024-03-08T01:56:53;42.13;;;24.88;;
47335;SDS011;33068;51.990;5.926;2024-03-08T01:59:21;43.30;;;26.17;;
47335;SDS011;33068;51.990;5.926;2024-03-08T02:01:48;45.17;;;25.75;;
47335;SDS011;33068;51.990;5.926;2024-03-08T02:04:18;41.92;;;25.73;;
47335;SDS011;33068;51.990;5.926;2024-03-08T02:06:46;44.28;;;25.85;;
47335;SDS011;33068;51.990;5.926;2024-03-08T02:09:14;39.58;;;25.52;;
47335;SDS011;33068;51.990;5.926;2024-03-08T02:11:42;53.97;;;27.95;;
47335;SDS011;33068;51.990;5.926;2024-03-08T02:14:10;40.05;;;25.85;;
47335;SDS011;33068;51.990;5.926;2024-03-08T02:16:37;46.03;;;26.42;;
47335;SDS011;33068;51.990;5.926;2024-03-08T02:19:04;44.17;;;25.50;;
47335;SDS011;33068;51.990;5.926;2024-03-08T02:21:35;49.40;;;26.58;;
47335;SDS011;33068;51.990;5.926;2024-03-08T02:24:03;45.83;;;27.88;;
47335;SDS011;33068;51.990;5.926;2024-03-08T02:26:31;40.67;;;25.00;;
47335;SDS011;33068;51.990;5.926;2024-03-08T02:28:58;45.03;;;26.95;;
47335;SDS011;33068;51.990;5.926;2024-03-08T02:31:26;44.15;;;26.70;;
47335;SDS011;33068;51.990;5.926;2024-03-08T02:33:55;47.22;;;27.13;;
47335;SDS011;33068;51.990;5.926;2024-03-08T02:36:23;48.20;;;27.55;;
47335;SDS011;33068;51.990;5.926;2024-03-08T02:38:51;46.15;;;26.98;;
47335;SDS011;33068;51.990;5.926;2024-03-08T02:41:20;48.30;;;27.52;;
47335;SDS011;33068;51.990;5.926;2024-03-08T02:43:48;47.72;;;28.13;;
47335;SDS011;33068;51.990;5.926;2024-03-08T02:46:15;52.85;;;28.75;;
47335;SDS011;33068;51.990;5.926;2024-03-08T02:48:46;53.35;;;29.33;;
47335;SDS011;33068;51.990;5.926;2024-03-08T02:51:13;50.15;;;27.33;;
47335;SDS011;33068;51.990;5.926;2024-03-08T02:53:41;50.60;;;26.50;;
47335;SDS011;33068;51.990;5.926;2024-03-08T02:56:11;49.58;;;27.38;;
47335;SDS011;33068;51.990;5.926;2024-03-08T02:58:41;46.35;;;27.92;;
47335;SDS011;33068;51.990;5.926;2024-03-08T03:01:13;55.80;;;31.60;;
47335;SDS011;33068;51.990;5.926;2024-03-08T03:03:41;51.00;;;28.55;;
47335;SDS011;33068;51.990;5.926;2024-03-08T03:06:08;51.58;;;29.20;;
47335;SDS011;33068;51.990;5.926;2024-03-08T03:08:35;51.13;;;29.77;;
47335;SDS011;33068;51.990;5.926;2024-03-08T03:11:03;52.47;;;30.23;;
47335;SDS011;33068;51.990;5.926;2024-03-08T03:13:32;53.33;;;30.67;;
47335;SDS011;33068;51.990;5.926;2024-03-08T03:15:59;50.33;;;29.70;;
47335;SDS011;33068;51.990;5.926;2024-03-08T03:18:28;47.47;;;27.77;;
47335;SDS011;33068;51.990;5.926;2024-03-08T03:20:58;51.88;;;29.65;;
47335;SDS011;33068;51.990;5.926;2024-03-08T03:23:25;53.63;;;29.95;;
47335;SDS011;33068;51.990;5.926;2024-03-08T03:25:52;51.95;;;28.38;;
47335;SDS011;33068;51.990;5.926;2024-03-08T03:28:22;52.38;;;30.55;;
47335;SDS011;33068;51.990;5.926;2024-03-08T03:30:51;52.53;;;29.38;;
47335;SDS011;33068;51.990;5.926;2024-03-08T03:33:18;50.95;;;30.08;;
47335;SDS011;33068;51.990;5.926;2024-03-08T03:35:46;47.33;;;29.98;;
47335;SDS011;33068;51.990;5.926;2024-03-08T03:38:14;53.03;;;30.88;;
47335;SDS011;33068;51.990;5.926;2024-03-08T03:40:41;52.67;;;30.70;;
47335;SDS011;33068;51.990;5.926;2024-03-08T03:43:10;50.70;;;29.38;;
47335;SDS011;33068;51.990;5.926;2024-03-08T03:45:39;52.30;;;29.50;;
47335;SDS011;33068;51.990;5.926;2024-03-08T03:48:08;49.90;;;29.10;;
47335;SDS011;33068;51.990;5.926;2024-03-08T03:50:35;51.83;;;30.90;;
47335;SDS011;33068;51.990;5.926;2024-03-08T03:53:06;48.13;;;30.70;;
47335;SDS011;33068;51.990;5.926;2024-03-08T03:55:33;51.88;;;30.10;;
47335;SDS011;33068;51.990;5.926;2024-03-08T03:58:02;48.05;;;29.90;;
47335;SDS011;33068;51.990;5.926;2024-03-08T04:00:31;49.60;;;28.70;;
47335;SDS011;33068;51.990;5.926;2024-03-08T04:02:58;47.70;;;28.10;;
47335;SDS011;33068;51.990;5.926;2024-03-08T04:05:27;49.22;;;29.27;;
47335;SDS011;33068;51.990;5.926;2024-03-08T04:07:57;52.42;;;30.90;;
47335;SDS011;33068;51.990;5.926;2024-03-08T04:10:24;57.35;;;31.30;;
47335;SDS011;33068;51.990;5.926;2024-03-08T04:12:52;52.25;;;30.65;;
47335;SDS011;33068;51.990;5.926;2024-03-08T04:15:19;53.90;;;30.48;;
47335;SDS011;33068;51.990;5.926;2024-03-08T04:17:46;49.20;;;28.58;;
47335;SDS011;33068;51.990;5.926;2024-03-08T04:20:14;52.83;;;29.77;;
47335;SDS011;33068;51.990;5.926;2024-03-08T04:22:44;49.25;;;29.35;;
47335;SDS011;33068;51.990;5.926;2024-03-08T04:25:12;55.15;;;30.70;;
47335;SDS011;33068;51.990;5.926;2024-03-08T04:27:39;56.15;;;31.05;;
47335;SDS011;33068;51.990;5.926;2024-03-08T04:30:07;53.78;;;30.13;;
47335;SDS011;33068;51.990;5.926;2024-03-08T04:32:35;58.83;;;32.05;;
47335;SDS011;33068;51.990;5.926;2024-03-08T04:35:03;54.78;;;31.35;;
47335;SDS011;33068;51.990;5.926;2024-03-08T04:37:31;50.60;;;31.33;;
47335;SDS011;33068;51.990;5.926;2024-03-08T04:39:59;54.65;;;32.55;;
47335;SDS011;33068;51.990;5.926;2024-03-08T04:42:26;51.45;;;30.02;;
47335;SDS011;33068;51.990;5.926;2024-03-08T04:44:58;55.28;;;32.50;;
47335;SDS011;33068;51.990;5.926;2024-03-08T04:47:25;57.45;;;32.22;;
47335;SDS011;33068;51.990;5.926;2024-03-08T04:49:52;55.38;;;32.03;;
47335;SDS011;33068;51.990;5.926;2024-03-08T04:52:21;56.20;;;31.48;;
47335;SDS011;33068;51.990;5.926;2024-03-08T04:54:48;53.75;;;31.52;;
47335;SDS011;33068;51.990;5.926;2024-03-08T04:57:17;51.40;;;30.02;;
47335;SDS011;33068;51.990;5.926;2024-03-08T04:59:45;53.17;;;32.38;;
47335;SDS011;33068;51.990;5.926;2024-03-08T05:02:12;59.15;;;32.17;;
47335;SDS011;33068;51.990;5.926;2024-03-08T05:04:39;58.53;;;33.58;;
47335;SDS011;33068;51.990;5.926;2024-03-08T05:07:07;58.10;;;30.80;;
47335;SDS011;33068;51.990;5.926;2024-03-08T05:09:35;51.83;;;31.48;;
47335;SDS011;33068;51.990;5.926;2024-03-08T05:12:03;54.58;;;30.35;;
47335;SDS011;33068;51.990;5.926;2024-03-08T05:14:32;51.75;;;29.23;;
47335;SDS011;33068;51.990;5.926;2024-03-08T05:17:00;56.13;;;32.25;;
47335;SDS011;33068;51.990;5.926;2024-03-08T05:19:27;54.47;;;30.52;;
47335;SDS011;33068;51.990;5.926;2024-03-08T05:21:55;56.05;;;32.25;;
47335;SDS011;33068;51.990;5.926;2024-03-08T05:24:23;51.60;;;29.73;;
47335;SDS011;33068;51.990;5.926;2024-03-08T05:26:50;59.20;;;33.90;;
47335;SDS011;33068;51.990;5.926;2024-03-08T05:29:17;56.78;;;31.13;;
47335;SDS011;33068;51.990;5.926;2024-03-08T05:31:47;53.10;;;30.52;;
47335;SDS011;33068;51.990;5.926;2024-03-08T05:34:15;51.60;;;30.40;;
47335;SDS011;33068;51.990;5.926;2024-03-08T05:36:44;55.05;;;31.75;;
47335;SDS011;33068;51.990;5.926;2024-03-08T05:39:12;54.33;;;31.25;;
47335;SDS011;33068;51.990;5.926;2024-03-08T05:41:40;51.40;;;31.23;;
47335;SDS011;33068;51.990;5.926;2024-03-08T05:44:07;56.60;;;32.95;;
47335;SDS011;33068;51.990;5.926;2024-03-08T05:46:35;54.75;;;32.42;;
47335;SDS011;33068;51.990;5.926;2024-03-08T05:49:04;55.58;;;33.83;;
47335;SDS011;33068;51.990;5.926;2024-03-08T05:51:32;61.08;;;33.72;;
47335;SDS011;33068;51.990;5.926;2024-03-08T05:54:00;55.65;;;33.58;;
47335;SDS011;33068;51.990;5.926;2024-03-08T05:56:28;50.88;;;30.02;;
47335;SDS011;33068;51.990;5.926;2024-03-08T05:58:55;58.88;;;33.88;;
47335;SDS011;33068;51.990;5.926;2024-03-08T06:01:23;58.15;;;33.15;;
47335;SDS011;33068;51.990;5.926;2024-03-08T06:03:51;56.45;;;31.38;;
47335;SDS011;33068;51.990;5.926;2024-03-08T06:06:22;56.85;;;32.72;;
47335;SDS011;33068;51.990;5.926;2024-03-08T06:08:50;56.50;;;32.35;;
47335;SDS011;33068;51.990;5.926;2024-03-08T06:11:22;55.47;;;32.20;;
47335;SDS011;33068;51.990;5.926;2024-03-08T06:13:49;54.55;;;32.70;;
47335;SDS011;33068;51.990;5.926;2024-03-08T06:16:16;53.50;;;31.83;;
47335;SDS011;33068;51.990;5.926;2024-03-08T06:18:43;56.25;;;32.15;;
47335;SDS011;33068;51.990;5.926;2024-03-08T06:21:12;56.00;;;33.28;;
47335;SDS011;33068;51.990;5.926;2024-03-08T06:23:41;57.17;;;32.50;;
47335;SDS011;33068;51.990;5.926;2024-03-08T06:26:09;56.60;;;32.67;;
47335;SDS011;33068;51.990;5.926;2024-03-08T06:28:36;60.50;;;32.75;;
47335;SDS011;33068;51.990;5.926;2024-03-08T06:31:03;59.50;;;31.63;;
47335;SDS011;33068;51.990;5.926;2024-03-08T06:33:35;50.78;;;30.70;;
47335;SDS011;33068;51.990;5.926;2024-03-08T06:36:05;58.13;;;33.53;;
47335;SDS011;33068;51.990;5.926;2024-03-08T06:38:32;59.83;;;35.20;;
47335;SDS011;33068;51.990;5.926;2024-03-08T06:41:09;55.42;;;31.80;;
47335;SDS011;33068;51.990;5.926;2024-03-08T06:43:40;55.28;;;31.85;;
47335;SDS011;33068;51.990;5.926;2024-03-08T06:46:08;57.03;;;33.03;;
47335;SDS011;33068;51.990;5.926;2024-03-08T06:48:37;55.20;;;31.55;;
47335;SDS011;33068;51.990;5.926;2024-03-08T06:51:05;56.28;;;32.35;;
47335;SDS011;33068;51.990;5.926;2024-03-08T06:53:32;53.47;;;30.35;;
47335;SDS011;33068;51.990;5.926;2024-03-08T06:56:00;59.50;;;32.75;;
47335;SDS011;33068;51.990;5.926;2024-03-08T06:58:29;57.63;;;33.50;;
47335;SDS011;33068;51.990;5.926;2024-03-08T07:00:58;53.78;;;33.30;;
47335;SDS011;33068;51.990;5.926;2024-03-08T07:03:26;53.47;;;31.40;;
47335;SDS011;33068;51.990;5.926;2024-03-08T07:05:54;53.42;;;31.73;;
47335;SDS011;33068;51.990;5.926;2024-03-08T07:08:23;56.80;;;32.90;;
47335;SDS011;33068;51.990;5.926;2024-03-08T07:10:52;57.00;;;32.50;;
47335;SDS011;33068;51.990;5.926;2024-03-08T07:13:20;56.40;;;33.92;;
47335;SDS011;33068;51.990;5.926;2024-03-08T07:15:48;51.28;;;31.35;;
47335;SDS011;33068;51.990;5.926;2024-03-08T07:18:18;58.58;;;32.20;;
47335;SDS011;33068;51.990;5.926;2024-03-08T07:20:47;56.55;;;30.27;;
47335;SDS011;33068;51.990;5.926;2024-03-08T07:23:17;52.70;;;31.42;;
47335;SDS011;33068;51.990;5.926;2024-03-08T07:25:58;56.95;;;32.85;;
47335;SDS011;33068;51.990;5.926;2024-03-08T07:28:26;53.58;;;32.10;;
47335;SDS011;33068;51.990;5.926;2024-03-08T07:30:57;54.63;;;31.73;;
47335;SDS011;33068;51.990;5.926;2024-03-08T07:33:38;54.75;;;30.80;;
47335;SDS011;33068;51.990;5.926;2024-03-08T07:36:05;55.08;;;33.80;;
47335;SDS011;33068;51.990;5.926;2024-03-08T07:38:33;63.70;;;30.23;;
47335;SDS011;33068;51.990;5.926;2024-03-08T07:41:01;56.60;;;32.65;;
47335;SDS011;33068;51.990;5.926;2024-03-08T07:43:38;54.17;;;31.73;;
47335;SDS011;33068;51.990;5.926;2024-03-08T07:46:07;56.35;;;32.20;;
47335;SDS011;33068;51.990;5.926;2024-03-08T07:48:36;59.55;;;32.50;;
47335;SDS011;33068;51.990;5.926;2024-03-08T07:51:05;55.42;;;31.60;;
47335;SDS011;33068;51.990;5.926;2024-03-08T07:53:34;53.03;;;31.17;;
47335;SDS011;33068;51.990;5.926;2024-03-08T07:56:02;56.13;;;32.47;;
47335;SDS011;33068;51.990;5.926;2024-03-08T07:58:30;53.63;;;30.95;;
47335;SDS011;33068;51.990;5.926;2024-03-08T08:00:57;58.13;;;31.17;;
47335;SDS011;33068;51.990;5.926;2024-03-08T08:03:26;48.55;;;28.67;;
47335;SDS011;33068;51.990;5.926;2024-03-08T08:05:53;57.20;;;33.78;;
47335;SDS011;33068;51.990;5.926;2024-03-08T08:08:20;58.15;;;31.88;;
47335;SDS011;33068;51.990;5.926;2024-03-08T08:10:48;53.92;;;32.38;;
47335;SDS011;33068;51.990;5.926;2024-03-08T08:13:16;57.08;;;32.15;;
47335;SDS011;33068;51.990;5.926;2024-03-08T08:15:43;52.60;;;31.42;;
47335;SDS011;33068;51.990;5.926;2024-03-08T08:18:11;58.97;;;32.40;;
47335;SDS011;33068;51.990;5.926;2024-03-08T08:20:40;50.80;;;29.60;;
47335;SDS011;33068;51.990;5.926;2024-03-08T08:23:08;55.28;;;31.75;;
47335;SDS011;33068;51.990;5.926;2024-03-08T08:25:39;56.13;;;32.67;;
47335;SDS011;33068;51.990;5.926;2024-03-08T08:28:06;51.40;;;30.88;;
47335;SDS011;33068;51.990;5.926;2024-03-08T08:30:33;56.53;;;32.65;;
47335;SDS011;33068;51.990;5.926;2024-03-08T08:33:02;51.50;;;31.95;;
47335;SDS011;33068;51.990;5.926;2024-03-08T08:35:30;54.53;;;31.17;;
47335;SDS011;33068;51.990;5.926;2024-03-08T08:38:00;56.13;;;32.83;;
47335;SDS011;33068;51.990;5.926;2024-03-08T08:40:28;52.83;;;28.98;;
47335;SDS011;33068;51.990;5.926;2024-03-08T08:42:57;45.72;;;27.48;;
47335;SDS011;33068;51.990;5.926;2024-03-08T08:45:25;48.53;;;29.58;;
47335;SDS011;33068;51.990;5.926;2024-03-08T08:47:52;53.65;;;30.55;;
47335;SDS011;33068;51.990;5.926;2024-03-08T08:50:19;54.90;;;31.42;;
47335;SDS011;33068;51.990;5.926;2024-03-08T08:52:48;51.05;;;30.48;;
47335;SDS011;33068;51.990;5.926;2024-03-08T08:55:17;49.72;;;28.83;;
47335;SDS011;33068;51.990;5.926;2024-03-08T08:57:46;50.75;;;29.33;;
47335;SDS011;33068;51.990;5.926;2024-03-08T09:00:14;48.80;;;28.05;;
47335;SDS011;33068;51.990;5.926;2024-03-08T09:02:41;48.53;;;29.80;;
47335;SDS011;33068;51.990;5.926;2024-03-08T09:05:09;46.33;;;28.70;;
47335;SDS011;33068;51.990;5.926;2024-03-08T09:07:37;47.15;;;26.95;;
47335;SDS011;33068;51.990;5.926;2024-03-08T09:10:04;49.35;;;29.63;;
47335;SDS011;33068;51.990;5.926;2024-03-08T09:12:33;44.10;;;27.83;;
47335;SDS011;33068;51.990;5.926;2024-03-08T09:15:00;45.00;;;28.15;;
47335;SDS011;33068;51.990;5.926;2024-03-08T09:17:28;48.85;;;29.00;;
47335;SDS011;33068;51.990;5.926;2024-03-08T09:19:55;47.30;;;28.33;;
47335;SDS011;33068;51.990;5.926;2024-03-08T09:22:25;48.42;;;27.35;;
47335;SDS011;33068;51.990;5.926;2024-03-08T09:24:53;47.25;;;28.98;;
47335;SDS011;33068;51.990;5.926;2024-03-08T09:27:20;44.55;;;26.58;;
47335;SDS011;33068;51.990;5.926;2024-03-08T09:29:49;48.90;;;27.13;;
47335;SDS011;33068;51.990;5.926;2024-03-08T09:32:16;43.63;;;25.27;;
47335;SDS011;33068;51.990;5.926;2024-03-08T09:34:43;44.50;;;26.77;;
47335;SDS011;33068;51.990;5.926;2024-03-08T09:37:10;41.63;;;25.75;;
47335;SDS011;33068;51.990;5.926;2024-03-08T09:39:38;46.38;;;25.73;;
47335;SDS011;33068;51.990;5.926;2024-03-08T09:42:05;41.83;;;25.02;;
47335;SDS011;33068;51.990;5.926;2024-03-08T09:44:32;41.85;;;24.63;;
47335;SDS011;33068;51.990;5.926;2024-03-08T09:47:01;38.88;;;24.05;;
47335;SDS011;33068;51.990;5.926;2024-03-08T09:49:31;39.88;;;22.90;;
47335;SDS011;33068;51.990;5.926;2024-03-08T09:51:59;42.25;;;24.77;;
47335;SDS011;33068;51.990;5.926;2024-03-08T09:54:30;39.47;;;23.58;;
47335;SDS011;33068;51.990;5.926;2024-03-08T09:56:58;37.65;;;23.33;;
47335;SDS011;33068;51.990;5.926;2024-03-08T09:59:27;39.72;;;24.38;;
47335;SDS011;33068;51.990;5.926;2024-03-08T10:02:15;40.00;;;23.50;;
47335;SDS011;33068;51.990;5.926;2024-03-08T10:04:44;34.80;;;22.05;;
47335;SDS011;33068;51.990;5.926;2024-03-08T10:07:14;37.65;;;22.20;;
47335;SDS011;33068;51.990;5.926;2024-03-08T10:09:41;37.38;;;22.27;;
47335;SDS011;33068;51.990;5.926;2024-03-08T10:12:15;36.10;;;21.45;;
47335;SDS011;33068;51.990;5.926;2024-03-08T10:14:45;36.90;;;22.10;;
47335;SDS011;33068;51.990;5.926;2024-03-08T10:17:12;37.60;;;23.13;;
47335;SDS011;33068;51.990;5.926;2024-03-08T10:19:49;35.38;;;21.50;;
47335;SDS011;33068;51.990;5.926;2024-03-08T10:22:17;40.58;;;22.80;;
47335;SDS011;33068;51.990;5.926;2024-03-08T10:24:45;32.60;;;20.50;;
47335;SDS011;33068;51.990;5.926;2024-03-08T10:27:12;34.50;;;20.20;;
47335;SDS011;33068;51.990;5.926;2024-03-08T10:29:41;36.25;;;22.70;;
47335;SDS011;33068;51.990;5.926;2024-03-08T10:32:10;34.50;;;22.05;;
47335;SDS011;33068;51.990;5.926;2024-03-08T10:34:39;34.83;;;21.17;;
47335;SDS011;33068;51.990;5.926;2024-03-08T10:37:07;35.55;;;20.55;;
47335;SDS011;33068;51.990;5.926;2024-03-08T10:39:42;38.53;;;20.52;;
47335;SDS011;33068;51.990;5.926;2024-03-08T10:44:49;32.72;;;19.88;;
47335;SDS011;33068;51.990;5.926;2024-03-08T10:47:29;34.60;;;20.80;;
47335;SDS011;33068;51.990;5.926;2024-03-08T10:50:02;35.05;;;20.58;;
47335;SDS011;33068;51.990;5.926;2024-03-08T10:52:36;32.13;;;19.60;;
47335;SDS011;33068;51.990;5.926;2024-03-08T10:55:05;30.88;;;20.52;;
47335;SDS011;33068;51.990;5.926;2024-03-08T10:57:38;29.85;;;19.48;;
47335;SDS011;33068;51.990;5.926;2024-03-08T11:00:07;34.40;;;20.40;;
47335;SDS011;33068;51.990;5.926;2024-03-08T11:02:43;33.65;;;19.95;;
47335;SDS011;33068;51.990;5.926;2024-03-08T11:05:13;32.22;;;19.60;;
47335;SDS011;33068;51.990;5.926;2024-03-08T11:07:58;32.88;;;20.00;;
47335;SDS011;33068;51.990;5.926;2024-03-08T11:10:26;31.83;;;19.38;;
47335;SDS011;33068;51.990;5.926;2024-03-08T11:12:53;27.02;;;16.73;;
47335;SDS011;33068;51.990;5.926;2024-03-08T11:15:21;26.30;;;17.52;;
47335;SDS011;33068;51.990;5.926;2024-03-08T11:17:49;28.10;;;17.77;;
47335;SDS011;33068;51.990;5.926;2024-03-08T11:20:20;29.98;;;18.25;;
47335;SDS011;33068;51.990;5.926;2024-03-08T11:22:50;27.98;;;16.73;;
47335;SDS011;33068;51.990;5.926;2024-03-08T11:25:35;25.48;;;15.85;;
47335;SDS011;33068;51.990;5.926;2024-03-08T11:28:12;25.52;;;17.50;;
47335;SDS011;33068;51.990;5.926;2024-03-08T11:30:42;27.90;;;15.93;;
47335;SDS011;33068;51.990;5.926;2024-03-08T11:33:13;25.73;;;16.65;;
47335;SDS011;33068;51.990;5.926;2024-03-08T11:35:43;22.50;;;15.15;;
47335;SDS011;33068;51.990;5.926;2024-03-08T11:38:11;22.83;;;15.45;;
47335;SDS011;33068;51.990;5.926;2024-03-08T11:40:39;23.77;;;15.70;;
47335;SDS011;33068;51.990;5.926;2024-03-08T11:43:07;25.00;;;14.38;;
47335;SDS011;33068;51.990;5.926;2024-03-08T11:45:35;27.85;;;14.98;;
47335;SDS011;33068;51.990;5.926;2024-03-08T11:48:03;27.75;;;17.63;;
47335;SDS011;33068;51.990;5.926;2024-03-08T11:50:31;26.70;;;16.63;;
47335;SDS011;33068;51.990;5.926;2024-03-08T11:53:04;25.42;;;16.15;;
47335;SDS011;33068;51.990;5.926;2024-03-08T11:55:32;22.98;;;14.50;;
47335;SDS011;33068;51.990;5.926;2024-03-08T11:58:01;23.73;;;15.05;;
47335;SDS011;33068;51.990;5.926;2024-03-08T12:00:29;20.30;;;12.98;;
47335;SDS011;33068;51.990;5.926;2024-03-08T12:03:01;19.25;;;12.93;;
47335;SDS011;33068;51.990;5.926;2024-03-08T12:05:29;22.45;;;13.60;;
47335;SDS011;33068;51.990;5.926;2024-03-08T12:07:58;22.85;;;13.68;;
47335;SDS011;33068;51.990;5.926;2024-03-08T12:10:28;22.17;;;14.07;;
47335;SDS011;33068;51.990;5.926;2024-03-08T12:12:57;22.58;;;14.23;;
47335;SDS011;33068;51.990;5.926;2024-03-08T12:15:25;23.25;;;15.65;;
47335;SDS011;33068;51.990;5.926;2024-03-08T12:17:58;25.75;;;15.70;;
47335;SDS011;33068;51.990;5.926;2024-03-08T12:20:27;21.33;;;14.77;;
47335;SDS011;33068;51.990;5.926;2024-03-08T12:22:56;21.73;;;13.68;;
47335;SDS011;33068;51.990;5.926;2024-03-08T12:25:26;21.58;;;14.25;;
47335;SDS011;33068;51.990;5.926;2024-03-08T12:28:06;24.02;;;14.07;;
47335;SDS011;33068;51.990;5.926;2024-03-08T12:30:36;21.65;;;15.43;;
47335;SDS011;33068;51.990;5.926;2024-03-08T12:33:13;23.60;;;14.23;;
47335;SDS011;33068;51.990;5.926;2024-03-08T12:35:49;21.83;;;14.02;;
47335;SDS011;33068;51.990;5.926;2024-03-08T12:38:19;19.25;;;14.48;;
47335;SDS011;33068;51.990;5.926;2024-03-08T12:40:54;21.90;;;14.15;;
47335;SDS011;33068;51.990;5.926;2024-03-08T12:43:23;24.00;;;14.93;;
47335;SDS011;33068;51.990;5.926;2024-03-08T12:45:50;21.08;;;14.05;;
47335;SDS011;33068;51.990;5.926;2024-03-08T12:48:18;24.27;;;15.05;;
47335;SDS011;33068;51.990;5.926;2024-03-08T12:50:46;22.63;;;13.85;;
47335;SDS011;33068;51.990;5.926;2024-03-08T12:53:14;23.25;;;14.77;;
47335;SDS011;33068;51.990;5.926;2024-03-08T12:55:41;21.30;;;14.27;;
47335;SDS011;33068;51.990;5.926;2024-03-08T12:58:10;23.67;;;15.25;;
47335;SDS011;33068;51.990;5.926;2024-03-08T13:00:37;21.33;;;14.25;;
47335;SDS011;33068;51.990;5.926;2024-03-08T13:03:08;23.10;;;14.75;;
47335;SDS011;33068;51.990;5.926;2024-03-08T13:05:36;21.95;;;14.30;;
47335;SDS011;33068;51.990;5.926;2024-03-08T13:08:05;24.70;;;15.23;;
47335;SDS011;33068;51.990;5.926;2024-03-08T13:10:37;30.58;;;16.55;;
47335;SDS011;33068;51.990;5.926;2024-03-08T13:13:05;24.02;;;15.93;;
47335;SDS011;33068;51.990;5.926;2024-03-08T13:15:36;22.60;;;15.13;;
47335;SDS011;33068;51.990;5.926;2024-03-08T13:18:03;24.77;;;15.93;;
47335;SDS011;33068;51.990;5.926;2024-03-08T13:20:34;22.77;;;13.98;;
47335;SDS011;33068;51.990;5.926;2024-03-08T13:23:02;24.05;;;15.98;;
47335;SDS011;33068;51.990;5.926;2024-03-08T13:25:30;24.73;;;16.10;;
47335;SDS011;33068;51.990;5.926;2024-03-08T13:27:58;23.30;;;15.43;;
47335;SDS011;33068;51.990;5.926;2024-03-08T13:30:26;24.77;;;15.13;;
47335;SDS011;33068;51.990;5.926;2024-03-08T13:32:55;23.08;;;16.10;;
47335;SDS011;33068;51.990;5.926;2024-03-08T13:35:22;28.73;;;16.77;;
47335;SDS011;33068;51.990;5.926;2024-03-08T13:37:52;22.40;;;14.40;;
47335;SDS011;33068;51.990;5.926;2024-03-08T13:40:19;26.10;;;16.23;;
47335;SDS011;33068;51.990;5.926;2024-03-08T13:42:47;25.02;;;15.30;;
47335;SDS011;33068;51.990;5.926;2024-03-08T13:45:15;24.65;;;15.40;;
47335;SDS011;33068;51.990;5.926;2024-03-08T13:47:47;28.17;;;16.45;;
47335;SDS011;33068;51.990;5.926;2024-03-08T13:50:18;26.65;;;15.32;;
47335;SDS011;33068;51.990;5.926;2024-03-08T13:52:46;23.20;;;15.23;;
47335;SDS011;33068;51.990;5.926;2024-03-08T13:55:16;24.23;;;15.82;;
47335;SDS011;33068;51.990;5.926;2024-03-08T13:57:44;24.80;;;15.75;;
47335;SDS011;33068;51.990;5.926;2024-03-08T14:00:12;24.65;;;16.15;;
47335;SDS011;33068;51.990;5.926;2024-03-08T14:02:40;24.50;;;14.73;;
47335;SDS011;33068;51.990;5.926;2024-03-08T14:05:07;22.13;;;13.98;;
47335;SDS011;33068;51.990;5.926;2024-03-08T14:07:38;25.60;;;14.88;;
47335;SDS011;33068;51.990;5.926;2024-03-08T14:10:05;23.10;;;14.15;;
47335;SDS011;33068;51.990;5.926;2024-03-08T14:12:35;23.13;;;14.85;;
47335;SDS011;33068;51.990;5.926;2024-03-08T14:15:06;27.38;;;15.50;;
47335;SDS011;33068;51.990;5.926;2024-03-08T14:17:35;24.17;;;15.95;;
47335;SDS011;33068;51.990;5.926;2024-03-08T14:20:02;26.95;;;14.27;;
47335;SDS011;33068;51.990;5.926;2024-03-08T14:22:30;21.17;;;14.23;;
47335;SDS011;33068;51.990;5.926;2024-03-08T14:24:59;22.98;;;16.02;;
47335;SDS011;33068;51.990;5.926;2024-03-08T14:27:27;23.73;;;13.80;;
47335;SDS011;33068;51.990;5.926;2024-03-08T14:29:55;20.88;;;14.13;;
47335;SDS011;33068;51.990;5.926;2024-03-08T14:32:23;22.73;;;14.70;;